createdAt,value
2022-09-23T00:01:10.119Z,99.90
2022-09-23T00:03:41.407Z,99.90
2022-09-23T00:06:10.753Z,99.90
2022-09-23T00:08:38.668Z,99.90
2022-09-23T00:11:17.327Z,99.90
2022-09-23T00:13:46.100Z,99.90
2022-09-23T00:16:15.421Z,99.90
2022-09-23T00:18:42.494Z,99.90
2022-09-23T00:21:14.491Z,99.90
2022-09-23T00:23:42.817Z,99.90
2022-09-23T00:26:12.892Z,99.90
2022-09-23T00:28:40.485Z,99.90
2022-09-23T00:31:13.513Z,99.90
2022-09-23T00:33:40.797Z,99.90
2022-09-23T00:36:15.596Z,99.90
2022-09-23T00:38:43.107Z,99.90
2022-09-23T00:41:10.164Z,99.90
2022-09-23T00:43:52.855Z,99.90
2022-09-23T00:46:43.511Z,99.90
2022-09-23T00:49:15.515Z,99.90
2022-09-23T00:51:51.247Z,99.90
2022-09-23T00:54:19.097Z,99.90
2022-09-23T00:56:45.878Z,99.90
2022-09-23T00:59:13.868Z,99.90
2022-09-23T01:01:41.188Z,99.90
2022-09-23T01:04:08.518Z,99.90
2022-09-23T01:06:35.340Z,99.90
2022-09-23T01:09:03.750Z,99.90
2022-09-23T01:11:36.449Z,99.90
2022-09-23T01:14:06.032Z,99.90
2022-09-23T01:16:44.484Z,99.90
2022-09-23T01:19:48.640Z,99.90
2022-09-23T01:22:34.150Z,99.90
2022-09-23T01:25:03.868Z,99.90
2022-09-23T01:27:53.142Z,99.90
2022-09-23T01:30:53.584Z,99.90
2022-09-23T01:33:46.111Z,99.90
2022-09-23T01:36:31.438Z,99.90
2022-09-23T01:39:00.958Z,99.90
2022-09-23T01:41:36.487Z,99.90
2022-09-23T01:44:16.457Z,99.90
2022-09-23T01:47:10.879Z,99.90
2022-09-23T01:49:55.052Z,99.90
2022-09-23T01:52:31.256Z,99.90
2022-09-23T01:55:08.641Z,99.90
2022-09-23T01:57:43.626Z,99.90
2022-09-23T02:00:18.352Z,99.90
2022-09-23T02:03:01.343Z,99.90
2022-09-23T02:05:39.020Z,99.90
2022-09-23T02:08:08.930Z,99.90
2022-09-23T02:10:42.091Z,99.90
2022-09-23T02:13:32.601Z,99.90
2022-09-23T02:16:04.922Z,99.90
2022-09-23T02:18:46.155Z,99.90
2022-09-23T02:21:14.888Z,99.90
2022-09-23T02:23:50.525Z,99.90
2022-09-23T02:26:38.209Z,99.90
2022-09-23T02:29:18.613Z,99.90
2022-09-23T02:31:54.797Z,99.90
2022-09-23T02:34:49.879Z,99.90
2022-09-23T02:37:32.387Z,99.90
2022-09-23T02:40:07.229Z,99.90
2022-09-23T02:42:48.305Z,99.90
2022-09-23T02:45:15.167Z,99.90
2022-09-23T02:47:44.093Z,99.90
2022-09-23T02:50:11.142Z,99.90
2022-09-23T02:52:38.695Z,99.90
2022-09-23T02:55:08.821Z,99.90
2022-09-23T02:57:35.754Z,99.90
2022-09-23T03:00:02.498Z,99.90
2022-09-23T03:03:01.404Z,99.90
2022-09-23T03:05:38.106Z,99.90
2022-09-23T03:08:48.107Z,99.90
2022-09-23T03:11:16.949Z,99.90
2022-09-23T03:14:07.920Z,99.90
2022-09-23T03:16:46.295Z,99.90
2022-09-23T03:19:23.744Z,99.90
2022-09-23T03:22:21.718Z,99.90
2022-09-23T03:24:53.917Z,99.90
2022-09-23T03:27:26.689Z,99.90
2022-09-23T03:29:55.212Z,99.90
2022-09-23T03:32:24.764Z,99.90
2022-09-23T03:34:54.235Z,99.90
2022-09-23T03:37:35.710Z,99.90
2022-09-23T03:40:13.809Z,99.90
2022-09-23T03:42:41.267Z,99.90
2022-09-23T03:45:13.322Z,99.90
2022-09-23T03:47:40.027Z,99.90
2022-09-23T03:50:07.125Z,99.90
2022-09-23T03:52:33.828Z,99.90
2022-09-23T03:55:01.367Z,99.90
2022-09-23T03:57:28.104Z,99.90
2022-09-23T03:59:54.945Z,99.90
2022-09-23T04:02:21.639Z,99.90
2022-09-23T04:04:48.603Z,99.90
2022-09-23T04:07:16.045Z,99.90
2022-09-23T04:09:42.880Z,99.90
2022-09-23T04:12:14.654Z,99.90
2022-09-23T04:14:41.760Z,99.90
2022-09-23T04:17:09.017Z,99.90
2022-09-23T04:19:35.784Z,99.90
2022-09-23T04:22:02.494Z,99.90
2022-09-23T04:24:29.295Z,99.90
2022-09-23T04:26:57.085Z,99.90
2022-09-23T04:29:25.508Z,99.90
2022-09-23T04:31:53.058Z,99.90
2022-09-23T04:34:20.633Z,99.90
2022-09-23T04:36:48.886Z,99.90
2022-09-23T04:39:16.843Z,99.90
2022-09-23T04:41:44.580Z,99.90
2022-09-23T04:44:12.268Z,99.90
2022-09-23T04:46:40.563Z,99.90
2022-09-23T04:49:08.367Z,99.90
2022-09-23T04:51:35.599Z,99.90
2022-09-23T04:54:02.259Z,99.90
2022-09-23T04:56:33.638Z,99.90
2022-09-23T04:59:01.767Z,99.90
2022-09-23T05:01:31.623Z,99.90
2022-09-23T05:04:05.382Z,99.90
2022-09-23T05:06:36.074Z,99.90
2022-09-23T05:09:05.680Z,99.90
2022-09-23T05:11:33.003Z,99.90
2022-09-23T05:13:59.931Z,99.90
2022-09-23T05:16:27.264Z,99.90
2022-09-23T05:18:54.481Z,99.90
2022-09-23T05:21:23.491Z,99.90
2022-09-23T05:23:54.246Z,99.90
2022-09-23T05:26:25.691Z,99.90
2022-09-23T05:28:53.818Z,99.90
2022-09-23T05:31:22.967Z,99.90
2022-09-23T05:33:56.110Z,99.90
2022-09-23T05:36:23.488Z,99.90
2022-09-23T05:38:51.252Z,99.90
2022-09-23T05:41:20.404Z,99.90
2022-09-23T05:43:47.383Z,99.90
2022-09-23T05:46:16.161Z,99.90
2022-09-23T05:48:45.511Z,99.90
2022-09-23T05:51:16.255Z,99.90
2022-09-23T05:53:45.510Z,99.90
2022-09-23T05:56:17.028Z,99.90
2022-09-23T05:58:44.786Z,99.90
2022-09-23T06:01:12.370Z,99.90
2022-09-23T06:03:39.525Z,99.90
2022-09-23T06:06:07.265Z,99.90
2022-09-23T06:08:34.577Z,99.90
2022-09-23T06:11:07.586Z,99.90
2022-09-23T06:13:38.317Z,99.90
2022-09-23T06:16:12.921Z,99.90
2022-09-23T06:18:41.511Z,99.90
2022-09-23T06:21:11.235Z,99.90
2022-09-23T06:23:40.941Z,99.90
2022-09-23T06:26:10.201Z,99.90
2022-09-23T06:28:39.164Z,99.90
2022-09-23T06:31:13.340Z,99.90
2022-09-23T06:33:41.123Z,99.90
2022-09-23T06:36:08.882Z,99.90
2022-09-23T06:38:39.369Z,99.90
2022-09-23T06:41:06.228Z,99.90
2022-09-23T06:43:32.892Z,99.90
2022-09-23T06:46:01.799Z,99.90
2022-09-23T06:48:29.510Z,99.90
2022-09-23T06:51:02.297Z,99.90
2022-09-23T06:53:32.114Z,99.90
2022-09-23T06:56:05.918Z,99.90
2022-09-23T06:58:34.198Z,99.90
2022-09-23T07:01:08.373Z,99.90
2022-09-23T07:03:35.782Z,99.90
2022-09-23T07:06:03.105Z,99.90
2022-09-23T07:08:31.284Z,99.90
2022-09-23T07:11:00.366Z,99.90
2022-09-23T07:13:27.594Z,99.90
2022-09-23T07:15:58.322Z,99.90
2022-09-23T07:18:26.327Z,99.90
2022-09-23T07:20:53.562Z,99.90
2022-09-23T07:23:20.473Z,99.90
2022-09-23T07:25:50.334Z,99.90
2022-09-23T07:28:20.461Z,99.90
2022-09-23T07:30:58.681Z,99.90
2022-09-23T07:33:33.208Z,99.90
2022-09-23T07:36:08.207Z,99.90
2022-09-23T07:38:36.130Z,99.90
2022-09-23T07:41:06.062Z,99.90
2022-09-23T07:43:33.631Z,99.90
2022-09-23T07:46:08.348Z,99.90
2022-09-23T07:48:36.408Z,99.90
2022-09-23T07:51:13.071Z,99.90
2022-09-23T07:53:39.795Z,99.90
2022-09-23T07:56:06.691Z,99.90
2022-09-23T07:58:34.500Z,99.90
2022-09-23T08:01:19.381Z,99.90
2022-09-23T08:03:46.021Z,99.90
2022-09-23T08:06:13.393Z,99.90
2022-09-23T08:08:44.708Z,99.90
2022-09-23T08:11:14.187Z,99.90
2022-09-23T08:13:41.577Z,99.90
2022-09-23T08:16:08.894Z,99.90
2022-09-23T08:18:35.560Z,99.90
2022-09-23T08:21:02.574Z,99.90
2022-09-23T08:23:33.440Z,99.90
2022-09-23T08:26:02.991Z,99.90
2022-09-23T08:28:30.259Z,99.90
2022-09-23T08:30:57.066Z,99.90
2022-09-23T08:33:24.367Z,99.90
2022-09-23T08:35:52.197Z,99.90
2022-09-23T08:38:19.715Z,99.90
2022-09-23T08:40:49.480Z,99.90
2022-09-23T08:43:29.019Z,99.90
2022-09-23T08:45:59.653Z,99.90
2022-09-23T08:48:30.768Z,99.90
2022-09-23T08:51:12.659Z,99.90
2022-09-23T08:53:40.422Z,99.90
2022-09-23T08:56:19.201Z,99.90
2022-09-23T08:59:12.138Z,99.90
2022-09-23T09:01:49.840Z,99.90
2022-09-23T09:04:27.429Z,99.90
2022-09-23T09:07:38.514Z,99.90
2022-09-23T09:10:16.623Z,99.90
2022-09-23T09:12:53.993Z,99.90
2022-09-23T09:15:25.180Z,99.90
2022-09-23T09:18:12.794Z,99.90
2022-09-23T09:21:00.462Z,99.90
2022-09-23T09:24:00.159Z,99.90
2022-09-23T09:26:33.938Z,99.90
2022-09-23T09:29:34.963Z,99.90
2022-09-23T09:32:49.899Z,99.90
2022-09-23T09:35:45.840Z,99.90
2022-09-23T09:38:13.176Z,99.90
2022-09-23T09:40:46.248Z,99.90
2022-09-23T09:43:25.545Z,99.90
2022-09-23T09:46:08.365Z,99.90
2022-09-23T09:48:40.005Z,99.90
2022-09-23T09:51:27.658Z,99.90
2022-09-23T09:53:56.848Z,99.90
2022-09-23T09:56:31.986Z,99.90
2022-09-23T09:59:11.384Z,99.90
2022-09-23T10:01:38.388Z,99.90
2022-09-23T10:04:34.819Z,99.90
2022-09-23T10:07:13.913Z,99.90
2022-09-23T10:09:48.338Z,99.90
2022-09-23T10:12:18.458Z,99.90
2022-09-23T10:14:47.291Z,99.90
2022-09-23T10:17:34.049Z,99.90
2022-09-23T10:20:06.851Z,99.90
2022-09-23T10:22:39.666Z,99.90
2022-09-23T10:25:20.034Z,99.90
2022-09-23T10:27:46.939Z,99.90
2022-09-23T10:30:25.506Z,99.90
2022-09-23T10:32:55.023Z,99.90
2022-09-23T10:35:24.426Z,99.90
2022-09-23T10:37:56.017Z,99.90
2022-09-23T10:40:58.955Z,99.90
2022-09-23T10:44:16.589Z,99.90
2022-09-23T10:47:03.492Z,99.90
2022-09-23T10:49:35.950Z,99.90
2022-09-23T10:52:50.979Z,99.90
2022-09-23T10:55:30.856Z,99.90
2022-09-23T10:58:05.223Z,99.90
2022-09-23T11:00:32.529Z,99.90
2022-09-23T11:03:27.653Z,99.90
2022-09-23T11:06:25.058Z,99.90
2022-09-23T11:09:18.985Z,99.90
2022-09-23T11:12:24.095Z,99.60
2022-09-23T11:15:01.209Z,97.00
2022-09-23T11:17:46.522Z,99.00
2022-09-23T11:20:31.922Z,99.60
2022-09-23T11:23:30.359Z,96.40
2022-09-23T11:26:18.220Z,96.10
2022-09-23T11:29:07.457Z,97.70
2022-09-23T11:32:05.159Z,96.90
2022-09-23T11:34:40.618Z,96.20
2022-09-23T11:37:13.964Z,96.40
2022-09-23T11:39:47.507Z,94.60
2022-09-23T11:42:22.087Z,93.30
2022-09-23T11:45:21.423Z,93.20
2022-09-23T11:47:54.477Z,93.20
2022-09-23T11:50:34.557Z,91.70
2022-09-23T11:53:22.378Z,90.30
2022-09-23T11:56:03.824Z,86.60
2022-09-23T11:58:37.827Z,84.20
2022-09-23T12:01:28.654Z,84.30
2022-09-23T12:04:22.883Z,81.80
2022-09-23T12:07:10.231Z,81.80
2022-09-23T12:09:58.161Z,82.80
2022-09-23T12:13:00.035Z,80.00
2022-09-23T12:15:29.690Z,83.00
2022-09-23T12:18:50.125Z,78.40
2022-09-23T12:21:51.310Z,74.70
2022-09-23T12:24:56.818Z,76.70
2022-09-23T12:27:37.988Z,77.20
2022-09-23T12:30:29.858Z,74.40
2022-09-23T12:33:09.407Z,77.00
2022-09-23T12:35:42.378Z,74.40
2022-09-23T12:38:18.018Z,76.60
2022-09-23T12:40:44.936Z,79.30
2022-09-23T12:43:19.747Z,80.00
2022-09-23T12:45:48.113Z,78.20
2022-09-23T12:48:17.560Z,73.90
2022-09-23T12:51:12.751Z,76.80
2022-09-23T12:53:53.705Z,76.70
2022-09-23T12:56:22.810Z,75.30
2022-09-23T12:58:49.457Z,76.90
2022-09-23T13:01:18.909Z,74.30
2022-09-23T13:04:16.666Z,70.50
2022-09-23T13:06:53.204Z,71.30
2022-09-23T13:09:25.683Z,70.90
2022-09-23T13:11:53.394Z,69.30
2022-09-23T13:14:27.408Z,69.90
2022-09-23T13:16:56.199Z,71.30
2022-09-23T13:19:25.946Z,70.50
2022-09-23T13:22:11.213Z,71.80
2022-09-23T13:24:46.097Z,72.40
2022-09-23T13:27:20.304Z,72.50
2022-09-23T13:30:01.222Z,72.40
2022-09-23T13:32:37.241Z,72.50
2022-09-23T13:35:07.082Z,70.50
2022-09-23T13:37:47.718Z,69.80
2022-09-23T13:40:28.186Z,68.30
2022-09-23T13:43:03.012Z,67.10
2022-09-23T13:45:31.366Z,67.50
2022-09-23T13:48:07.304Z,68.60
2022-09-23T13:50:38.479Z,69.00
2022-09-23T13:53:10.596Z,71.40
2022-09-23T13:55:39.297Z,72.30
2022-09-23T13:58:23.894Z,75.50
2022-09-23T14:00:51.332Z,71.10
2022-09-23T14:03:18.060Z,73.40
2022-09-23T14:05:46.059Z,70.20
2022-09-23T14:08:13.185Z,71.90
2022-09-23T14:10:42.926Z,70.10
2022-09-23T14:13:17.007Z,69.50
2022-09-23T14:15:44.960Z,69.80
2022-09-23T14:18:27.573Z,73.70
2022-09-23T14:20:54.281Z,72.30
2022-09-23T14:23:21.013Z,71.60
2022-09-23T14:25:48.485Z,70.90
2022-09-23T14:28:18.145Z,71.30
2022-09-23T14:30:46.257Z,74.30
2022-09-23T14:33:18.722Z,71.90
2022-09-23T14:35:50.047Z,70.70
2022-09-23T14:38:48.925Z,71.00
2022-09-23T14:41:25.346Z,72.40
2022-09-23T14:44:00.761Z,76.00
2022-09-23T14:46:34.243Z,77.10
2022-09-23T14:49:02.947Z,77.80
2022-09-23T14:51:34.066Z,79.40
2022-09-23T14:54:22.537Z,77.90
2022-09-23T14:56:49.318Z,78.70
2022-09-23T14:59:27.261Z,79.80
2022-09-23T15:01:54.008Z,81.60
2022-09-23T15:04:23.749Z,80.30
2022-09-23T15:06:55.702Z,80.70
2022-09-23T15:09:35.607Z,83.40
2022-09-23T15:12:11.939Z,83.70
2022-09-23T15:14:42.454Z,81.20
2022-09-23T15:17:30.453Z,81.10
2022-09-23T15:20:01.194Z,80.40
2022-09-23T15:22:28.432Z,82.00
2022-09-23T15:25:10.863Z,80.60
2022-09-23T15:27:37.623Z,80.30
2022-09-23T15:30:19.076Z,81.30
2022-09-23T15:32:46.673Z,78.80
2022-09-23T15:35:18.964Z,81.20
2022-09-23T15:37:47.782Z,82.70
2022-09-23T15:40:27.604Z,82.40
2022-09-23T15:46:50.582Z,85.30
2022-09-23T15:49:32.599Z,87.20
2022-09-23T15:52:00.871Z,90.20
2022-09-23T15:54:28.833Z,90.70
2022-09-23T15:56:56.349Z,90.80
2022-09-23T15:59:24.069Z,91.80
2022-09-23T16:01:52.659Z,92.40
2022-09-23T16:04:19.662Z,93.40
2022-09-23T16:06:48.291Z,94.20
2022-09-23T16:09:15.734Z,95.30
2022-09-23T16:11:48.323Z,94.50
2022-09-23T16:14:16.473Z,94.60
2022-09-23T16:16:45.252Z,94.10
2022-09-23T16:19:12.511Z,96.20
2022-09-23T16:21:40.905Z,97.80
2022-09-23T16:24:18.365Z,98.10
2022-09-23T16:26:46.773Z,99.70
2022-09-23T16:29:14.444Z,99.90
2022-09-23T16:31:41.318Z,99.90
2022-09-23T16:34:08.204Z,99.90
2022-09-23T16:36:41.396Z,99.90
2022-09-23T16:39:11.026Z,99.90
2022-09-23T16:41:38.085Z,99.90
2022-09-23T16:44:07.282Z,99.90
2022-09-23T16:46:34.737Z,99.90
2022-09-23T16:49:01.554Z,99.90
2022-09-23T16:51:38.318Z,99.90
2022-09-23T16:54:11.922Z,99.90
2022-09-23T16:56:44.987Z,99.90
2022-09-23T16:59:13.294Z,99.90
2022-09-23T17:01:58.659Z,99.90
2022-09-23T17:04:25.344Z,99.90
2022-09-23T17:06:54.308Z,99.90
2022-09-23T17:09:24.630Z,99.90
2022-09-23T17:12:11.411Z,99.90
2022-09-23T17:14:38.122Z,99.90
2022-09-23T17:17:04.828Z,99.90
2022-09-23T17:19:31.731Z,99.90
2022-09-23T17:21:58.316Z,99.90
2022-09-23T17:24:24.969Z,99.90
2022-09-23T17:26:53.300Z,99.90
2022-09-23T17:29:20.585Z,99.90
2022-09-23T17:31:47.274Z,99.90
2022-09-23T17:34:13.950Z,99.90
2022-09-23T17:36:40.630Z,99.90
2022-09-23T17:39:07.387Z,99.90
2022-09-23T17:41:34.155Z,99.90
2022-09-23T17:44:01.005Z,99.90
2022-09-23T17:46:29.994Z,99.90
2022-09-23T17:48:57.289Z,99.90
2022-09-23T17:51:27.571Z,99.90
2022-09-23T17:53:54.238Z,99.90
2022-09-23T17:56:23.241Z,99.90
2022-09-23T17:58:50.972Z,99.90
2022-09-23T18:01:20.680Z,99.90
2022-09-23T18:03:47.796Z,99.90
2022-09-23T18:06:20.349Z,99.90
2022-09-23T18:08:48.962Z,99.90
2022-09-23T18:11:15.614Z,99.90
2022-09-23T18:13:46.513Z,99.90
2022-09-23T18:16:13.260Z,99.90
2022-09-23T18:18:39.881Z,99.90
2022-09-23T18:21:07.620Z,99.90
2022-09-23T18:23:34.313Z,99.90
2022-09-23T18:26:00.933Z,99.90
2022-09-23T18:28:34.081Z,99.90
2022-09-23T18:31:01.549Z,99.90
2022-09-23T18:33:28.186Z,99.90
2022-09-23T18:35:54.871Z,99.90
2022-09-23T18:38:21.489Z,99.90
2022-09-23T18:40:56.220Z,99.90
2022-09-23T18:43:25.796Z,99.90
2022-09-23T18:46:00.801Z,99.90
2022-09-23T18:48:47.355Z,99.90
2022-09-23T18:51:15.135Z,99.90
2022-09-23T18:53:42.195Z,99.90
2022-09-23T18:56:11.424Z,99.90
2022-09-23T18:58:38.271Z,99.90
2022-09-23T19:01:09.717Z,99.90
2022-09-23T19:03:37.288Z,99.90
2022-09-23T19:06:09.492Z,99.90
2022-09-23T19:08:37.044Z,99.90
2022-09-23T19:11:05.673Z,99.90
2022-09-23T19:13:33.482Z,99.90
2022-09-23T19:16:14.148Z,99.90
2022-09-23T19:18:42.802Z,99.90
2022-09-23T19:21:12.667Z,99.90
2022-09-23T19:23:40.631Z,99.90
2022-09-23T19:26:11.086Z,99.90
2022-09-23T19:28:38.770Z,99.90
2022-09-23T19:31:16.645Z,99.90
2022-09-23T19:33:47.345Z,99.90
2022-09-23T19:36:16.925Z,99.90
2022-09-23T19:38:44.340Z,99.90
2022-09-23T19:41:11.214Z,99.90
2022-09-23T19:43:37.948Z,99.90
2022-09-23T19:46:06.730Z,99.90
2022-09-23T19:48:34.161Z,99.90
2022-09-23T19:51:02.555Z,99.90
2022-09-23T19:53:29.227Z,99.90
2022-09-23T19:55:56.253Z,99.90
2022-09-23T19:58:23.348Z,99.90
2022-09-23T20:00:50.038Z,99.90
2022-09-23T20:03:18.220Z,99.90
2022-09-23T20:05:44.973Z,99.90
2022-09-23T20:08:11.606Z,99.90
2022-09-23T20:10:39.522Z,99.90
2022-09-23T20:13:06.258Z,99.90
2022-09-23T20:15:32.915Z,99.90
2022-09-23T20:17:59.585Z,99.90
2022-09-23T20:20:26.211Z,99.90
2022-09-23T20:22:55.056Z,99.90
2022-09-23T20:25:21.669Z,99.90
2022-09-23T20:27:52.476Z,99.90
2022-09-23T20:30:20.299Z,99.90
2022-09-23T20:32:49.902Z,99.90
2022-09-23T20:35:16.548Z,99.90
2022-09-23T20:37:43.197Z,99.90
2022-09-23T20:40:10.273Z,99.90
2022-09-23T20:42:36.995Z,99.90
2022-09-23T20:45:03.847Z,99.90
2022-09-23T20:47:30.441Z,99.90
2022-09-23T20:49:57.082Z,99.90
2022-09-23T20:52:24.477Z,99.90
2022-09-23T20:54:51.594Z,99.90
2022-09-23T20:57:19.890Z,99.90
2022-09-23T20:59:46.717Z,99.90
2022-09-23T21:02:13.485Z,99.90
2022-09-23T21:04:40.263Z,99.90
2022-09-23T21:07:07.154Z,99.90
2022-09-23T21:09:33.948Z,99.90
2022-09-23T21:12:00.769Z,99.90
2022-09-23T21:14:27.501Z,99.90
2022-09-23T21:16:54.890Z,99.90
2022-09-23T21:19:21.657Z,99.90
2022-09-23T21:21:48.326Z,99.90
2022-09-23T21:24:45.685Z,99.90
2022-09-23T21:27:03.887Z,99.90
2022-09-23T21:29:31.549Z,99.90
2022-09-23T21:31:58.214Z,99.90
2022-09-23T21:34:28.142Z,99.90
2022-09-23T21:36:55.424Z,99.90
2022-09-23T21:39:22.029Z,99.90
2022-09-23T21:41:49.778Z,99.90
2022-09-23T21:44:17.001Z,99.90
2022-09-23T21:46:43.733Z,99.90
2022-09-23T21:49:10.421Z,99.90
2022-09-23T21:51:40.636Z,99.90
2022-09-23T21:54:15.650Z,99.90
2022-09-23T21:56:43.830Z,99.90
2022-09-23T21:59:10.865Z,99.90
2022-09-23T22:01:40.867Z,99.90
2022-09-23T22:04:16.138Z,99.90
2022-09-23T22:06:43.368Z,99.90
2022-09-23T22:09:14.661Z,99.90
2022-09-23T22:12:00.519Z,99.90
2022-09-23T22:14:27.654Z,99.90
2022-09-23T22:16:59.022Z,99.90
2022-09-23T22:19:27.780Z,99.90
2022-09-23T22:21:55.783Z,99.90
2022-09-23T22:24:22.947Z,99.90
2022-09-23T22:26:49.872Z,99.90
2022-09-23T22:29:35.994Z,99.90
2022-09-23T22:32:22.852Z,99.90
2022-09-23T22:34:51.630Z,99.90
2022-09-23T22:37:21.454Z,99.90
2022-09-23T22:39:48.330Z,99.90
2022-09-23T22:42:14.975Z,99.90
2022-09-23T22:44:41.796Z,99.90
2022-09-23T22:47:09.503Z,99.90
2022-09-23T22:49:36.344Z,99.90
2022-09-23T22:52:08.377Z,99.90
2022-09-23T22:54:36.394Z,99.90
2022-09-23T22:57:09.413Z,99.90
2022-09-23T22:59:37.534Z,99.90
2022-09-23T23:02:06.549Z,99.90
2022-09-23T23:04:33.531Z,99.90
2022-09-23T23:07:00.168Z,99.90
2022-09-23T23:09:26.816Z,99.90
2022-09-23T23:11:53.537Z,99.90
2022-09-23T23:14:20.241Z,99.90
2022-09-23T23:16:47.165Z,99.90
2022-09-23T23:19:16.877Z,99.90
2022-09-23T23:21:44.794Z,99.90
2022-09-23T23:24:17.016Z,99.90
2022-09-23T23:26:44.486Z,99.90
2022-09-23T23:29:12.819Z,99.90
2022-09-23T23:31:40.452Z,99.90
2022-09-23T23:34:10.648Z,99.90
2022-09-23T23:36:38.294Z,99.90
2022-09-23T23:39:05.409Z,99.90
2022-09-23T23:41:32.093Z,99.90
2022-09-23T23:44:00.363Z,99.90
2022-09-23T23:46:31.291Z,99.90
2022-09-23T23:48:58.694Z,99.90
2022-09-23T23:51:26.831Z,99.90
2022-09-23T23:53:54.526Z,99.90
2022-09-23T23:56:23.603Z,99.90
2022-09-23T23:58:56.995Z,99.90
